createdAt,value
2023-01-01T00:00:26.074Z,0.00
2023-01-01T00:01:26.022Z,0.10
2023-01-01T00:02:29.189Z,0.10
2023-01-01T00:03:26.023Z,0.00
2023-01-01T00:05:25.976Z,0.10
2023-01-01T00:06:25.959Z,0.10
2023-01-01T00:07:25.942Z,0.00
2023-01-01T00:08:25.929Z,0.00
2023-01-01T00:09:25.916Z,0.10
2023-01-01T00:10:25.905Z,0.10
2023-01-01T00:11:25.890Z,0.10
2023-01-01T00:12:25.887Z,0.00
2023-01-01T00:13:25.865Z,0.00
2023-01-01T00:14:25.860Z,0.00
2023-01-01T00:15:25.864Z,0.10
2023-01-01T00:16:25.870Z,0.10
2023-01-01T00:17:25.809Z,0.00
2023-01-01T00:18:25.797Z,0.10
2023-01-01T00:19:25.787Z,0.10
2023-01-01T00:20:30.015Z,0.10
2023-01-01T00:21:27.756Z,0.10
2023-01-01T00:22:53.479Z,0.00
2023-01-01T00:23:27.730Z,0.10
2023-01-01T00:24:25.720Z,0.10
2023-01-01T00:25:25.729Z,0.00
2023-01-01T00:26:29.580Z,0.10
2023-01-01T00:27:27.674Z,0.10
2023-01-01T00:28:25.666Z,0.00
2023-01-01T00:29:25.654Z,0.10
2023-01-01T00:30:25.638Z,0.10
2023-01-01T00:31:25.683Z,0.10
2023-01-01T00:32:25.689Z,0.00
2023-01-01T00:33:25.601Z,0.10
2023-01-01T00:34:25.589Z,0.10
2023-01-01T00:35:25.615Z,0.10
2023-01-01T00:36:25.561Z,0.10
2023-01-01T00:37:25.546Z,0.10
2023-01-01T00:38:25.533Z,0.10
2023-01-01T00:39:25.523Z,0.00
2023-01-01T00:40:25.510Z,0.10
2023-01-01T00:41:25.502Z,0.10
2023-01-01T00:42:25.487Z,0.10
2023-01-01T00:43:25.468Z,0.00
2023-01-01T00:44:25.463Z,0.10
2023-01-01T00:45:25.440Z,0.10
2023-01-01T00:46:25.445Z,0.10
2023-01-01T00:47:25.435Z,0.10
2023-01-01T00:48:25.404Z,0.10
2023-01-01T00:49:25.391Z,0.10
2023-01-01T00:50:25.376Z,0.10
2023-01-01T00:51:25.363Z,0.10
2023-01-01T00:52:25.344Z,0.10
2023-01-01T00:53:25.341Z,0.10
2023-01-01T00:54:25.322Z,0.00
2023-01-01T00:55:25.312Z,0.10
2023-01-01T00:56:25.298Z,0.10
2023-01-01T00:57:25.280Z,0.10
2023-01-01T00:58:25.283Z,0.10
2023-01-01T00:59:28.746Z,0.10
2023-01-01T01:00:25.244Z,0.10
2023-01-01T01:01:25.358Z,0.10
2023-01-01T01:02:25.432Z,0.10
2023-01-01T01:03:25.225Z,0.10
2023-01-01T01:04:25.207Z,0.10
2023-01-01T01:05:25.187Z,0.00
2023-01-01T01:06:25.187Z,0.10
2023-01-01T01:07:25.180Z,0.10
2023-01-01T01:08:30.404Z,0.10
2023-01-01T01:09:25.121Z,0.10
2023-01-01T01:10:25.119Z,0.00
2023-01-01T01:11:25.097Z,0.10
2023-01-01T01:12:25.086Z,0.10
2023-01-01T01:13:25.068Z,0.00
2023-01-01T01:14:25.056Z,0.10
2023-01-01T01:15:25.041Z,0.10
2023-01-01T01:16:25.085Z,0.10
2023-01-01T01:17:25.022Z,0.10
2023-01-01T01:18:25.008Z,0.10
2023-01-01T01:19:25.029Z,0.10
2023-01-01T01:20:24.979Z,0.10
2023-01-01T01:21:24.963Z,0.00
2023-01-01T01:22:28.739Z,0.10
2023-01-01T01:23:24.936Z,0.10
2023-01-01T01:24:24.927Z,0.00
2023-01-01T01:25:24.911Z,0.10
2023-01-01T01:26:24.898Z,0.10
2023-01-01T01:27:24.884Z,0.10
2023-01-01T01:28:24.872Z,0.00
2023-01-01T01:29:24.859Z,0.00
2023-01-01T01:30:24.855Z,0.10
2023-01-01T01:31:24.951Z,0.10
2023-01-01T01:32:24.821Z,0.00
2023-01-01T01:33:24.807Z,0.10
2023-01-01T01:34:28.057Z,0.10
2023-01-01T01:35:24.803Z,0.10
2023-01-01T01:36:24.767Z,0.00
2023-01-01T01:37:24.756Z,0.10
2023-01-01T01:38:24.742Z,0.10
2023-01-01T01:39:24.730Z,0.10
2023-01-01T01:40:24.717Z,0.10
2023-01-01T01:41:28.917Z,0.10
2023-01-01T01:42:24.689Z,0.10
2023-01-01T01:43:24.676Z,0.10
2023-01-01T01:44:24.678Z,0.10
2023-01-01T01:45:29.781Z,0.10
2023-01-01T01:46:24.675Z,0.10
2023-01-01T01:47:24.624Z,0.10
2023-01-01T01:48:24.612Z,0.10
2023-01-01T01:49:24.597Z,0.10
2023-01-01T01:50:24.605Z,0.10
2023-01-01T01:51:24.593Z,0.10
2023-01-01T01:52:24.560Z,0.10
2023-01-01T01:53:24.547Z,0.10
2023-01-01T01:54:24.552Z,0.00
2023-01-01T01:55:24.524Z,0.10
2023-01-01T01:56:24.516Z,0.10
2023-01-01T01:57:24.495Z,0.10
2023-01-01T01:58:24.609Z,0.10
2023-01-01T01:59:24.464Z,0.00
2023-01-01T02:00:24.457Z,0.10
2023-01-01T02:01:24.687Z,0.10
2023-01-01T02:02:24.502Z,0.10
2023-01-01T02:03:24.445Z,0.00
2023-01-01T02:04:24.408Z,0.10
2023-01-01T02:05:24.385Z,0.10
2023-01-01T02:06:24.375Z,0.10
2023-01-01T02:07:24.393Z,0.00
2023-01-01T02:08:24.347Z,0.10
2023-01-01T02:09:24.332Z,0.10
2023-01-01T02:10:24.327Z,0.10
2023-01-01T02:11:24.305Z,0.00
2023-01-01T02:12:24.297Z,0.10
2023-01-01T02:13:24.292Z,0.10
2023-01-01T02:14:24.270Z,0.10
2023-01-01T02:15:24.260Z,0.00
2023-01-01T02:16:24.241Z,0.10
2023-01-01T02:17:24.228Z,0.10
2023-01-01T02:18:24.220Z,0.10
2023-01-01T02:19:24.201Z,0.00
2023-01-01T02:20:24.195Z,0.00
2023-01-01T02:21:24.179Z,0.10
2023-01-01T02:22:24.164Z,0.10
2023-01-01T02:23:24.178Z,0.10
2023-01-01T02:24:24.139Z,0.00
2023-01-01T02:25:24.126Z,0.10
2023-01-01T02:26:24.120Z,0.00
2023-01-01T02:27:24.100Z,0.00
2023-01-01T02:28:24.102Z,0.00
2023-01-01T02:29:24.076Z,0.10
2023-01-01T02:30:24.059Z,0.10
2023-01-01T02:31:24.162Z,0.10
2023-01-01T02:32:24.036Z,0.00
2023-01-01T02:33:24.024Z,0.10
2023-01-01T02:34:24.011Z,0.10
2023-01-01T02:35:24.000Z,0.10
2023-01-01T02:36:23.986Z,0.10
2023-01-01T02:37:23.973Z,0.10
2023-01-01T02:38:23.971Z,0.10
2023-01-01T02:39:23.985Z,0.10
2023-01-01T02:40:23.938Z,0.00
2023-01-01T02:41:23.920Z,0.10
2023-01-01T02:42:23.905Z,0.10
2023-01-01T02:43:25.201Z,0.10
2023-01-01T02:44:23.882Z,0.10
2023-01-01T02:45:23.872Z,0.00
2023-01-01T02:46:23.865Z,0.10
2023-01-01T02:47:23.871Z,0.10
2023-01-01T02:48:23.839Z,0.10
2023-01-01T02:49:23.818Z,0.10
2023-01-01T02:50:23.809Z,0.00
2023-01-01T02:51:23.791Z,0.10
2023-01-01T02:52:23.781Z,0.10
2023-01-01T02:53:23.769Z,0.10
2023-01-01T02:54:23.752Z,0.00
2023-01-01T02:55:23.765Z,0.00
2023-01-01T02:56:23.728Z,0.10
2023-01-01T02:57:23.714Z,0.10
2023-01-01T02:58:23.706Z,0.10
2023-01-01T02:59:23.690Z,0.00
2023-01-01T03:00:23.675Z,0.10
2023-01-01T03:01:23.799Z,0.10
2023-01-01T03:02:23.783Z,0.00
2023-01-01T03:03:23.696Z,0.00
2023-01-01T03:04:23.628Z,0.00
2023-01-01T03:05:23.612Z,0.10
2023-01-01T03:06:23.611Z,0.10
2023-01-01T03:07:23.586Z,0.00
2023-01-01T03:08:23.571Z,0.00
2023-01-01T03:09:23.571Z,0.10
2023-01-01T03:10:23.551Z,0.10
2023-01-01T03:11:23.556Z,0.00
2023-01-01T03:12:23.526Z,0.10
2023-01-01T03:13:23.509Z,0.00
2023-01-01T03:14:23.495Z,0.10
2023-01-01T03:15:23.483Z,0.00
2023-01-01T03:16:23.490Z,0.10
2023-01-01T03:17:23.457Z,0.10
2023-01-01T03:18:23.442Z,0.10
2023-01-01T03:19:23.438Z,0.00
2023-01-01T03:20:23.417Z,0.00
2023-01-01T03:21:23.405Z,0.10
2023-01-01T03:22:23.395Z,0.10
2023-01-01T03:23:23.379Z,0.10
2023-01-01T03:24:23.367Z,0.00
2023-01-01T03:25:23.355Z,0.00
2023-01-01T03:26:23.345Z,0.10
2023-01-01T03:27:23.356Z,0.10
2023-01-01T03:28:23.339Z,0.10
2023-01-01T03:29:23.321Z,0.00
2023-01-01T03:30:23.289Z,0.10
2023-01-01T03:31:23.283Z,0.00
2023-01-01T03:32:23.264Z,0.00
2023-01-01T03:33:23.250Z,0.10
2023-01-01T03:34:23.240Z,0.00
2023-01-01T03:35:23.230Z,0.10
2023-01-01T03:36:23.212Z,0.10
2023-01-01T03:37:23.199Z,0.10
2023-01-01T03:38:23.186Z,0.00
2023-01-01T03:39:23.174Z,0.10
2023-01-01T03:40:23.161Z,0.10
2023-01-01T03:41:23.149Z,0.10
2023-01-01T03:42:23.134Z,0.00
2023-01-01T03:43:23.150Z,0.00
2023-01-01T03:44:23.108Z,0.00
2023-01-01T03:45:23.095Z,0.00
2023-01-01T03:46:23.126Z,0.10
2023-01-01T03:47:23.069Z,0.10
2023-01-01T03:48:23.056Z,0.10
2023-01-01T03:49:23.052Z,0.10
2023-01-01T03:50:23.031Z,0.10
2023-01-01T03:51:23.018Z,0.00
2023-01-01T03:52:23.009Z,0.10
2023-01-01T03:53:22.993Z,0.10
2023-01-01T03:54:22.980Z,0.10
2023-01-01T03:55:22.969Z,0.10
2023-01-01T03:56:22.956Z,0.00
2023-01-01T03:57:22.941Z,0.00
2023-01-01T03:58:22.934Z,0.10
2023-01-01T03:59:22.944Z,0.10
2023-01-01T04:00:22.902Z,0.00
2023-01-01T04:01:22.959Z,0.00
2023-01-01T04:02:22.903Z,0.10
2023-01-01T04:03:22.895Z,0.10
2023-01-01T04:04:22.856Z,0.10
2023-01-01T04:05:22.840Z,0.00
2023-01-01T04:06:22.823Z,0.10
2023-01-01T04:07:22.816Z,0.10
2023-01-01T04:08:22.802Z,0.00
2023-01-01T04:09:22.791Z,0.00
2023-01-01T04:10:22.774Z,0.00
2023-01-01T04:11:22.762Z,0.10
2023-01-01T04:12:22.758Z,0.10
2023-01-01T04:13:22.736Z,0.10
2023-01-01T04:14:22.721Z,0.10
2023-01-01T04:15:22.773Z,0.10
2023-01-01T04:16:22.735Z,0.10
2023-01-01T04:17:22.688Z,0.10
2023-01-01T04:18:22.671Z,0.00
2023-01-01T04:19:22.659Z,0.10
2023-01-01T04:20:22.642Z,0.10
2023-01-01T04:21:22.634Z,0.00
2023-01-01T04:22:22.625Z,0.00
2023-01-01T04:23:22.607Z,0.10
2023-01-01T04:24:22.592Z,0.10
2023-01-01T04:25:22.579Z,0.10
2023-01-01T04:26:22.562Z,0.00
2023-01-01T04:27:22.566Z,0.10
2023-01-01T04:28:22.540Z,0.10
2023-01-01T04:29:22.564Z,0.10
2023-01-01T04:30:22.518Z,0.10
2023-01-01T04:31:22.532Z,0.10
2023-01-01T04:32:22.487Z,0.10
2023-01-01T04:33:22.488Z,0.10
2023-01-01T04:34:22.491Z,0.00
2023-01-01T04:35:22.481Z,0.00
2023-01-01T04:36:22.437Z,0.10
2023-01-01T04:37:22.424Z,0.10
2023-01-01T04:38:22.416Z,0.00
2023-01-01T04:39:22.401Z,0.00
2023-01-01T04:40:22.388Z,0.10
2023-01-01T04:41:22.373Z,0.10
2023-01-01T04:42:22.358Z,0.00
2023-01-01T04:43:22.345Z,0.00
2023-01-01T04:44:22.336Z,0.10
2023-01-01T04:45:22.437Z,0.10
2023-01-01T04:46:22.304Z,0.00
2023-01-01T04:47:22.322Z,0.00
2023-01-01T04:48:22.278Z,0.10
2023-01-01T04:49:22.277Z,0.10
2023-01-01T04:50:22.249Z,0.00
2023-01-01T04:51:22.247Z,0.00
2023-01-01T04:52:22.234Z,0.10
2023-01-01T04:53:22.215Z,0.10
2023-01-01T04:54:22.206Z,0.10
2023-01-01T04:55:22.194Z,0.10
2023-01-01T04:56:22.177Z,0.10
2023-01-01T04:57:22.168Z,0.10
2023-01-01T04:58:22.147Z,0.10
2023-01-01T04:59:22.138Z,0.00
2023-01-01T05:00:22.124Z,0.10
2023-01-01T05:01:22.253Z,0.10
2023-01-01T05:02:22.220Z,0.00
2023-01-01T05:03:22.111Z,0.00
2023-01-01T05:04:22.068Z,0.10
2023-01-01T05:05:22.060Z,0.10
2023-01-01T05:06:22.046Z,0.00
2023-01-01T05:07:22.041Z,0.10
2023-01-01T05:08:22.025Z,0.10
2023-01-01T05:09:22.006Z,0.10
2023-01-01T05:10:21.990Z,0.10
2023-01-01T05:11:22.004Z,0.10
2023-01-01T05:12:21.972Z,0.00
2023-01-01T05:13:21.954Z,0.10
2023-01-01T05:14:21.940Z,0.10
2023-01-01T05:15:21.933Z,0.00
2023-01-01T05:16:21.954Z,0.00
2023-01-01T05:17:21.907Z,0.10
2023-01-01T05:18:21.886Z,0.10
2023-01-01T05:19:21.901Z,0.00
2023-01-01T05:20:21.870Z,0.00
2023-01-01T05:21:21.846Z,0.10
2023-01-01T05:22:21.832Z,0.10
2023-01-01T05:23:21.828Z,0.10
2023-01-01T05:24:21.812Z,0.00
2023-01-01T05:25:21.801Z,0.10
2023-01-01T05:26:21.777Z,0.10
2023-01-01T05:27:21.771Z,0.00
2023-01-01T05:28:21.759Z,0.10
2023-01-01T05:29:21.746Z,0.10
2023-01-01T05:30:21.742Z,0.10
2023-01-01T05:31:21.833Z,0.10
2023-01-01T05:32:21.705Z,0.00
2023-01-01T05:33:21.710Z,0.00
2023-01-01T05:34:21.691Z,0.10
2023-01-01T05:35:26.321Z,0.10
2023-01-01T05:36:21.660Z,0.00
2023-01-01T05:37:21.639Z,0.10
2023-01-01T05:38:21.623Z,0.10
2023-01-01T05:39:21.615Z,0.10
2023-01-01T05:40:21.605Z,0.10
2023-01-01T05:41:21.604Z,0.00
2023-01-01T05:42:21.574Z,0.10
2023-01-01T05:43:21.567Z,0.10
2023-01-01T05:44:21.556Z,0.00
2023-01-01T05:45:21.538Z,0.00
2023-01-01T05:46:21.603Z,0.10
2023-01-01T05:47:21.516Z,0.10
2023-01-01T05:48:21.515Z,0.00
2023-01-01T05:49:21.502Z,0.00
2023-01-01T05:50:21.472Z,0.10
2023-01-01T05:51:21.512Z,0.10
2023-01-01T05:52:26.287Z,0.10
2023-01-01T05:53:21.440Z,0.10
2023-01-01T05:54:21.429Z,0.10
2023-01-01T05:55:21.406Z,0.10
2023-01-01T05:56:21.400Z,0.00
2023-01-01T05:57:21.380Z,0.00
2023-01-01T05:58:21.370Z,0.10
2023-01-01T05:59:21.362Z,0.10
2023-01-01T06:00:21.340Z,0.00
2023-01-01T06:01:21.350Z,0.00
2023-01-01T06:02:21.312Z,0.00
2023-01-01T06:03:21.307Z,0.10
2023-01-01T06:04:21.319Z,0.10
2023-01-01T06:05:21.287Z,0.00
2023-01-01T06:06:21.266Z,0.10
2023-01-01T06:07:21.276Z,0.10
2023-01-01T06:08:21.254Z,0.10
2023-01-01T06:09:21.227Z,0.00
2023-01-01T06:10:21.221Z,0.00
2023-01-01T06:11:21.201Z,0.10
2023-01-01T06:12:21.190Z,0.10
2023-01-01T06:13:21.181Z,0.00
2023-01-01T06:14:21.160Z,0.10
2023-01-01T06:15:21.149Z,0.10
2023-01-01T06:16:21.151Z,0.10
2023-01-01T06:17:21.123Z,0.10
2023-01-01T06:18:21.111Z,0.00
2023-01-01T06:19:21.109Z,0.00
2023-01-01T06:20:21.084Z,0.10
2023-01-01T06:21:21.077Z,0.10
2023-01-01T06:22:21.059Z,0.10
2023-01-01T06:23:21.071Z,0.00
2023-01-01T06:24:21.038Z,0.00
2023-01-01T06:25:21.022Z,0.10
2023-01-01T06:26:21.023Z,0.10
2023-01-01T06:27:20.996Z,0.10
2023-01-01T06:28:20.981Z,0.00
2023-01-01T06:29:20.967Z,0.00
2023-01-01T06:30:20.954Z,0.10
2023-01-01T06:31:21.088Z,0.10
2023-01-01T06:32:20.938Z,0.10
2023-01-01T06:33:20.942Z,0.00
2023-01-01T06:34:20.903Z,0.10
2023-01-01T06:35:20.892Z,0.10
2023-01-01T06:36:20.877Z,0.10
2023-01-01T06:37:20.868Z,0.00
2023-01-01T06:38:20.852Z,0.00
2023-01-01T06:39:20.865Z,0.10
2023-01-01T06:40:20.826Z,0.10
2023-01-01T06:41:20.820Z,0.10
2023-01-01T06:42:20.802Z,0.00
2023-01-01T06:43:20.787Z,0.10
2023-01-01T06:44:20.777Z,0.10
2023-01-01T06:45:20.774Z,0.10
2023-01-01T06:46:20.790Z,0.00
2023-01-01T06:47:20.737Z,0.10
2023-01-01T06:48:20.734Z,0.00
2023-01-01T06:49:20.710Z,0.00
2023-01-01T06:50:20.697Z,0.00
2023-01-01T06:51:20.683Z,0.10
2023-01-01T06:52:20.710Z,0.00
2023-01-01T06:53:20.658Z,0.00
2023-01-01T06:54:20.656Z,0.00
2023-01-01T06:55:20.656Z,0.10
2023-01-01T06:56:20.618Z,0.00
2023-01-01T06:57:20.606Z,0.00
2023-01-01T06:58:20.600Z,0.10
2023-01-01T06:59:20.581Z,0.00
2023-01-01T07:00:20.568Z,0.10
2023-01-01T07:01:20.768Z,0.10
2023-01-01T07:02:20.801Z,0.10
2023-01-01T07:03:20.564Z,0.10
2023-01-01T07:04:20.517Z,0.10
2023-01-01T07:05:20.503Z,0.10
2023-01-01T07:06:20.496Z,0.00
2023-01-01T07:07:20.476Z,0.00
2023-01-01T07:08:20.469Z,0.10
2023-01-01T07:09:20.451Z,0.10
2023-01-01T07:10:20.438Z,0.10
2023-01-01T07:11:20.454Z,0.10
2023-01-01T07:12:20.412Z,0.00
2023-01-01T07:13:20.408Z,0.10
2023-01-01T07:14:20.384Z,0.10
2023-01-01T07:15:20.373Z,0.10
2023-01-01T07:16:20.449Z,0.10
2023-01-01T07:17:20.346Z,0.10
2023-01-01T07:18:20.338Z,10.89
2023-01-01T07:19:20.325Z,0.10
2023-01-01T07:20:20.310Z,0.20
2023-01-01T07:21:26.539Z,0.10
2023-01-01T07:22:20.284Z,0.10
2023-01-01T07:23:20.285Z,0.10
2023-01-01T07:24:20.265Z,0.10
2023-01-01T07:25:20.251Z,0.10
2023-01-01T07:26:20.236Z,0.20
2023-01-01T07:27:20.240Z,0.10
2023-01-01T07:28:20.220Z,20.60
2023-01-01T07:29:20.194Z,0.10
2023-01-01T07:30:20.203Z,0.10
2023-01-01T07:31:20.280Z,0.10
2023-01-01T07:32:20.186Z,0.10
2023-01-01T07:33:20.155Z,0.10
2023-01-01T07:34:20.124Z,0.10
2023-01-01T07:35:20.123Z,0.20
2023-01-01T07:36:20.104Z,0.20
2023-01-01T07:37:20.089Z,0.10
2023-01-01T07:38:20.077Z,0.10
2023-01-01T07:39:20.075Z,29.79
2023-01-01T07:40:20.050Z,0.10
2023-01-01T07:41:20.039Z,0.10
2023-01-01T07:42:20.028Z,0.10
2023-01-01T07:43:20.032Z,0.10
2023-01-01T07:44:20.003Z,0.10
2023-01-01T07:45:19.983Z,0.10
2023-01-01T07:46:20.094Z,0.10
2023-01-01T07:47:19.962Z,0.20
2023-01-01T07:48:19.971Z,0.10
2023-01-01T07:49:19.928Z,0.60
2023-01-01T07:50:19.918Z,33.00
2023-01-01T07:51:19.902Z,32.40
2023-01-01T07:52:19.893Z,33.09
2023-01-01T07:53:19.899Z,32.29
2023-01-01T07:54:19.869Z,32.00
2023-01-01T07:55:19.865Z,32.09
2023-01-01T07:56:19.843Z,32.09
2023-01-01T07:57:19.834Z,32.79
2023-01-01T07:58:19.816Z,32.09
2023-01-01T07:59:20.763Z,32.00
2023-01-01T08:00:19.794Z,32.50
2023-01-01T08:01:19.981Z,31.89
2023-01-01T08:02:19.873Z,33.09
2023-01-01T08:03:19.808Z,31.50
2023-01-01T08:04:19.740Z,31.79
2023-01-01T08:06:19.717Z,29.70
2023-01-01T08:07:19.696Z,26.89
2023-01-01T08:08:19.685Z,25.89
2023-01-01T08:09:19.669Z,25.89
2023-01-01T08:10:19.656Z,25.60
2023-01-01T08:11:19.647Z,26.00
2023-01-01T08:12:19.629Z,26.50
2023-01-01T08:13:19.622Z,26.79
2023-01-01T08:14:19.625Z,26.89
2023-01-01T08:15:19.610Z,27.39
2023-01-01T08:16:19.683Z,25.39
2023-01-01T08:17:19.562Z,25.89
2023-01-01T08:18:19.555Z,26.00
2023-01-01T08:19:19.539Z,26.00
2023-01-01T08:20:19.525Z,26.00
2023-01-01T08:21:19.515Z,26.79
2023-01-01T08:22:19.504Z,25.39
2023-01-01T08:23:19.483Z,25.39
2023-01-01T08:24:19.477Z,26.00
2023-01-01T08:25:19.453Z,29.00
2023-01-01T08:26:19.444Z,30.29
2023-01-01T08:27:19.442Z,30.50
2023-01-01T08:28:19.416Z,31.50
2023-01-01T08:29:19.404Z,32.09
2023-01-01T08:30:19.388Z,31.89
2023-01-01T08:31:19.422Z,31.50
2023-01-01T08:32:19.363Z,31.39
2023-01-01T08:33:19.349Z,31.39
2023-01-01T08:34:19.339Z,31.89
2023-01-01T08:35:19.321Z,31.89
2023-01-01T08:36:19.309Z,31.39
2023-01-01T08:37:19.297Z,31.10
2023-01-01T08:38:19.283Z,30.39
2023-01-01T08:39:19.268Z,29.89
2023-01-01T08:40:19.254Z,28.60
2023-01-01T08:41:19.239Z,27.89
2023-01-01T08:42:19.224Z,27.79
2023-01-01T08:43:19.216Z,25.00
2023-01-01T08:44:19.199Z,24.60
2023-01-01T08:45:19.185Z,24.79
2023-01-01T08:46:19.221Z,24.00
2023-01-01T08:47:19.189Z,24.00
2023-01-01T08:48:19.150Z,23.79
2023-01-01T08:49:19.130Z,23.60
2023-01-01T08:50:19.121Z,23.79
2023-01-01T08:51:19.109Z,23.89
2023-01-01T08:52:19.093Z,24.20
2023-01-01T08:53:19.081Z,24.29
2023-01-01T08:54:19.076Z,22.60
2023-01-01T08:55:19.053Z,22.39
2023-01-01T08:56:19.057Z,22.79
2023-01-01T08:57:19.040Z,22.70
2023-01-01T08:58:19.024Z,21.00
2023-01-01T08:59:19.023Z,22.20
2023-01-01T09:00:18.997Z,22.10
2023-01-01T09:01:19.113Z,22.29
2023-01-01T09:02:19.140Z,21.29
2023-01-01T09:03:19.069Z,23.60
2023-01-01T09:04:18.937Z,23.20
2023-01-01T09:05:18.914Z,23.10
2023-01-01T09:06:18.905Z,22.60
2023-01-01T09:07:18.888Z,25.00
2023-01-01T09:08:18.877Z,25.50
2023-01-01T09:09:19.865Z,24.70
2023-01-01T09:10:18.857Z,25.29
2023-01-01T09:11:18.838Z,25.39
2023-01-01T09:12:18.826Z,23.20
2023-01-01T09:13:18.819Z,24.50
2023-01-01T09:14:18.797Z,24.70
2023-01-01T09:15:18.787Z,24.60
2023-01-01T09:16:18.899Z,24.39
2023-01-01T09:17:18.763Z,22.00
2023-01-01T09:18:18.748Z,21.60
2023-01-01T09:19:18.761Z,22.29
2023-01-01T09:20:18.722Z,22.50
2023-01-01T09:21:18.708Z,22.39
2023-01-01T09:22:18.693Z,22.89
2023-01-01T09:23:18.677Z,21.89
2023-01-01T09:24:18.667Z,22.60
2023-01-01T09:25:18.653Z,23.29
2023-01-01T09:26:18.667Z,23.20
2023-01-01T09:27:18.626Z,23.60
2023-01-01T09:28:25.110Z,22.79
2023-01-01T09:29:18.869Z,23.70
2023-01-01T09:30:18.592Z,24.20
2023-01-01T09:31:18.580Z,24.60
2023-01-01T09:32:18.575Z,22.20
2023-01-01T09:33:18.546Z,21.20
2023-01-01T09:34:18.542Z,21.00
2023-01-01T09:35:18.540Z,21.89
2023-01-01T09:36:18.507Z,22.20
2023-01-01T09:37:18.491Z,23.10
2023-01-01T09:38:18.488Z,22.79
2023-01-01T09:39:18.466Z,23.10
2023-01-01T09:40:18.477Z,22.29
2023-01-01T09:41:18.441Z,22.79
2023-01-01T09:42:18.426Z,23.89
2023-01-01T09:43:18.412Z,23.70
2023-01-01T09:44:18.400Z,23.10
2023-01-01T09:45:18.385Z,23.39
2023-01-01T09:46:18.425Z,22.70
2023-01-01T09:47:18.361Z,23.00
2023-01-01T09:48:18.350Z,23.70
2023-01-01T09:49:18.335Z,23.70
2023-01-01T09:50:18.329Z,22.79
2023-01-01T09:51:18.357Z,22.89
2023-01-01T09:52:18.296Z,22.79
2023-01-01T09:53:18.280Z,23.10
2023-01-01T09:54:18.269Z,23.70
2023-01-01T09:55:18.259Z,24.60
2023-01-01T09:56:18.245Z,23.60
2023-01-01T09:57:20.351Z,23.60
2023-01-01T09:58:18.216Z,23.10
2023-01-01T09:59:18.201Z,23.39
2023-01-01T10:00:18.196Z,24.00
2023-01-01T10:01:18.254Z,24.29
2023-01-01T10:02:18.201Z,24.10
2023-01-01T10:03:18.148Z,25.10
2023-01-01T10:04:18.215Z,25.29
2023-01-01T10:05:18.124Z,26.00
2023-01-01T10:06:18.109Z,26.29
2023-01-01T10:07:18.128Z,26.20
2023-01-01T10:08:23.028Z,28.89
2023-01-01T10:09:18.070Z,29.20
2023-01-01T10:10:18.062Z,28.39
2023-01-01T10:11:18.043Z,28.39
2023-01-01T10:12:18.027Z,27.70
2023-01-01T10:13:18.014Z,25.79
2023-01-01T10:14:18.004Z,25.20
2023-01-01T10:15:17.987Z,25.29
2023-01-01T10:16:23.904Z,25.60
2023-01-01T10:17:17.961Z,24.70
2023-01-01T10:18:17.959Z,21.89
2023-01-01T10:19:17.933Z,21.20
2023-01-01T10:20:17.920Z,21.60
2023-01-01T10:21:17.918Z,23.20
2023-01-01T10:22:17.894Z,23.70
2023-01-01T10:23:17.910Z,22.60
2023-01-01T10:24:17.870Z,22.70
2023-01-01T10:25:17.855Z,23.10
2023-01-01T10:26:17.855Z,23.39
2023-01-01T10:27:17.826Z,23.39
2023-01-01T10:28:17.809Z,23.79
2023-01-01T10:29:17.803Z,24.60
2023-01-01T10:30:17.804Z,23.50
2023-01-01T10:31:17.829Z,25.00
2023-01-01T10:32:17.760Z,25.70
2023-01-01T10:33:17.744Z,24.70
2023-01-01T10:34:17.731Z,25.29
2023-01-01T10:35:17.717Z,24.60
2023-01-01T10:36:17.720Z,25.39
2023-01-01T10:37:17.707Z,25.00
2023-01-01T10:38:17.678Z,24.20
2023-01-01T10:39:17.701Z,24.29
2023-01-01T10:40:17.651Z,25.50
2023-01-01T10:41:20.172Z,24.60
2023-01-01T10:42:17.639Z,24.50
2023-01-01T10:43:17.610Z,24.79
2023-01-01T10:44:17.599Z,25.29
2023-01-01T10:45:17.583Z,24.79
2023-01-01T10:46:17.599Z,24.50
2023-01-01T10:47:17.559Z,24.29
2023-01-01T10:48:17.552Z,23.29
2023-01-01T10:49:17.532Z,22.50
2023-01-01T10:50:17.520Z,21.20
2023-01-01T10:51:17.510Z,21.10
2023-01-01T10:52:17.492Z,21.39
2023-01-01T10:53:17.477Z,22.10
2023-01-01T10:54:17.465Z,21.60
2023-01-01T10:55:17.480Z,21.10
2023-01-01T10:56:17.435Z,20.89
2023-01-01T10:57:17.424Z,20.60
2023-01-01T10:58:17.412Z,21.50
2023-01-01T10:59:17.399Z,23.20
2023-01-01T11:00:17.384Z,23.00
2023-01-01T11:01:17.458Z,22.00
2023-01-01T11:02:17.616Z,22.29
2023-01-01T11:03:17.417Z,24.60
2023-01-01T11:04:17.334Z,23.70
2023-01-01T11:05:21.537Z,23.29
2023-01-01T11:06:17.311Z,23.39
2023-01-01T11:07:17.293Z,24.29
2023-01-01T11:08:17.276Z,24.89
2023-01-01T11:09:17.266Z,24.39
2023-01-01T11:10:17.253Z,24.60
2023-01-01T11:11:17.279Z,24.10
2023-01-01T11:12:46.172Z,23.29
2023-01-01T11:13:17.213Z,22.29
2023-01-01T11:14:17.201Z,22.39
2023-01-01T11:15:17.193Z,22.20
2023-01-01T11:16:17.201Z,21.60
2023-01-01T11:17:17.163Z,21.89
2023-01-01T11:18:17.148Z,21.70
2023-01-01T11:19:17.135Z,21.29
2023-01-01T11:20:17.123Z,21.29
2023-01-01T11:21:17.110Z,22.20
2023-01-01T11:22:17.093Z,21.60
2023-01-01T11:23:17.083Z,23.60
2023-01-01T11:24:17.067Z,23.70
2023-01-01T11:25:17.059Z,24.60
2023-01-01T11:26:17.050Z,27.70
2023-01-01T11:27:17.055Z,30.50
2023-01-01T11:28:17.021Z,28.29
2023-01-01T11:29:17.003Z,28.50
2023-01-01T11:30:16.986Z,29.79
2023-01-01T11:31:17.038Z,28.10
2023-01-01T11:32:16.963Z,29.79
2023-01-01T11:33:16.970Z,32.20
2023-01-01T11:34:16.936Z,38.59
2023-01-01T11:35:16.925Z,43.00
2023-01-01T11:36:16.910Z,45.70
2023-01-01T11:37:16.905Z,47.09
2023-01-01T11:38:16.886Z,49.00
2023-01-01T11:39:16.872Z,51.00
2023-01-01T11:40:16.863Z,50.00
2023-01-01T11:41:16.845Z,49.59
2023-01-01T11:42:16.828Z,49.79
2023-01-01T11:43:16.847Z,48.40
2023-01-01T11:44:16.804Z,53.29
2023-01-01T11:45:16.795Z,52.40
2023-01-01T11:46:16.835Z,48.79
2023-01-01T11:47:16.766Z,46.79
2023-01-01T11:48:16.755Z,49.20
2023-01-01T11:49:16.738Z,48.90
2023-01-01T11:50:16.727Z,49.50
2023-01-01T11:51:16.716Z,51.90
2023-01-01T11:52:16.698Z,59.40
2023-01-01T11:53:16.704Z,56.90
2023-01-01T11:54:16.673Z,58.90
2023-01-01T11:55:16.661Z,58.40
2023-01-01T11:56:17.657Z,55.00
2023-01-01T11:57:16.636Z,51.70
2023-01-01T11:58:19.880Z,52.20
2023-01-01T11:59:16.735Z,51.70
2023-01-01T12:00:16.597Z,47.79
2023-01-01T12:01:16.615Z,41.29
2023-01-01T12:02:16.653Z,34.20
2023-01-01T12:03:16.595Z,30.10
2023-01-01T12:04:16.690Z,30.89
2023-01-01T12:05:16.535Z,31.70
2023-01-01T12:06:16.525Z,45.90
2023-01-01T12:07:16.507Z,51.50
2023-01-01T12:08:16.494Z,50.70
2023-01-01T12:09:18.875Z,49.59
2023-01-01T12:10:16.467Z,49.20
2023-01-01T12:11:16.463Z,50.29
2023-01-01T12:12:16.445Z,48.50
2023-01-01T12:13:16.435Z,48.29
2023-01-01T12:14:16.419Z,49.50
2023-01-01T12:15:16.437Z,49.50
2023-01-01T12:16:16.440Z,50.29
2023-01-01T12:17:16.383Z,50.29
2023-01-01T12:18:16.379Z,51.40
2023-01-01T12:19:16.379Z,46.40
2023-01-01T12:20:16.341Z,41.90
2023-01-01T12:21:16.339Z,40.20
2023-01-01T12:22:16.330Z,41.00
2023-01-01T12:23:16.316Z,37.70
2023-01-01T12:24:16.294Z,31.20
2023-01-01T12:25:16.299Z,29.79
2023-01-01T12:26:16.264Z,29.89
2023-01-01T12:27:16.265Z,32.50
2023-01-01T12:28:16.237Z,29.29
2023-01-01T12:29:16.227Z,30.20
2023-01-01T12:30:16.335Z,29.79
2023-01-01T12:31:16.272Z,26.50
2023-01-01T12:32:16.186Z,25.39
2023-01-01T12:33:16.210Z,25.60
2023-01-01T12:34:16.157Z,28.29
2023-01-01T12:35:16.154Z,28.20
2023-01-01T12:36:16.130Z,27.00
2023-01-01T12:37:16.129Z,26.70
2023-01-01T12:38:16.103Z,25.50
2023-01-01T12:39:16.105Z,25.60
2023-01-01T12:40:21.147Z,24.29
2023-01-01T12:41:18.077Z,26.50
2023-01-01T12:42:16.064Z,26.79
2023-01-01T12:43:16.040Z,27.39
2023-01-01T12:44:16.026Z,28.20
2023-01-01T12:45:16.030Z,26.00
2023-01-01T12:46:16.108Z,26.20
2023-01-01T12:47:16.108Z,24.50
2023-01-01T12:48:15.971Z,22.10
2023-01-01T12:49:15.962Z,22.20
2023-01-01T12:50:16.006Z,22.79
2023-01-01T12:51:15.937Z,23.79
2023-01-01T12:52:15.920Z,24.29
2023-01-01T12:53:15.912Z,24.39
2023-01-01T12:54:15.903Z,26.50
2023-01-01T12:55:15.882Z,28.10
2023-01-01T12:56:22.459Z,27.70
2023-01-01T12:57:15.862Z,27.29
2023-01-01T12:58:15.842Z,28.10
2023-01-01T12:59:15.830Z,28.70
2023-01-01T13:00:15.895Z,28.39
2023-01-01T13:01:15.869Z,26.50
2023-01-01T13:02:15.895Z,23.89
2023-01-01T13:03:15.965Z,24.20
2023-01-01T13:04:15.761Z,24.00
2023-01-01T13:05:15.749Z,23.60
2023-01-01T13:06:17.646Z,23.00
2023-01-01T13:07:15.730Z,22.79
2023-01-01T13:08:15.718Z,23.29
2023-01-01T13:09:15.700Z,22.39